createdAt,value
2017-03-15T06:28:07.732Z,1024.46
2017-03-15T06:29:07.754Z,1024.44
2017-03-15T06:30:07.795Z,1024.53
2017-03-15T06:31:07.826Z,1024.59
2017-03-15T06:32:07.853Z,1024.58
2017-03-15T06:33:07.885Z,1024.67
2017-03-15T06:34:07.910Z,1024.63
2017-03-15T06:35:07.939Z,1024.65
2017-03-15T06:36:07.971Z,1024.71
2017-03-15T06:37:07.990Z,1024.72
2017-03-15T06:38:08.029Z,1024.82
2017-03-15T06:39:08.063Z,1024.77
2017-03-15T06:40:08.094Z,1024.82
2017-03-15T06:41:08.119Z,1024.82
2017-03-15T06:42:08.141Z,1024.91
2017-03-15T06:43:08.185Z,1025
2017-03-15T06:44:08.211Z,1024.92
2017-03-15T06:45:08.239Z,1024.98
2017-03-15T06:46:08.272Z,1024.96
2017-03-15T06:47:08.298Z,1024.99
2017-03-15T06:48:08.330Z,1024.99
2017-03-15T06:49:08.368Z,1025
2017-03-15T06:50:08.391Z,1024.99
2017-03-15T06:51:08.424Z,1025
2017-03-15T06:52:08.452Z,1025.01
2017-03-15T06:53:08.483Z,1025.03
2017-03-15T06:54:08.516Z,1025.08
2017-03-15T06:55:08.544Z,1025.05
2017-03-15T06:56:08.577Z,1025.02
2017-03-15T06:57:08.608Z,1025.02
2017-03-15T06:58:08.637Z,1025.04
2017-03-15T06:59:08.664Z,1025.1
2017-03-15T07:00:08.695Z,1025.13
2017-03-15T07:01:08.723Z,1025.1
2017-03-15T07:02:08.758Z,1025.08
2017-03-15T07:03:08.791Z,1025.08
2017-03-15T07:04:08.818Z,1025.11
2017-03-15T07:05:08.845Z,1025.07
2017-03-15T07:06:08.882Z,1025.02
2017-03-15T07:07:08.909Z,1025.02
2017-03-15T07:08:08.942Z,1025.07
2017-03-15T07:09:08.961Z,1025.08
2017-03-15T07:10:08.999Z,1025.16
2017-03-15T07:11:09.033Z,1025.11
2017-03-15T07:12:09.063Z,1025.16
2017-03-15T07:13:09.096Z,1025.26
2017-03-15T07:14:09.123Z,1025.37
2017-03-15T07:15:09.156Z,1025.59
2017-03-15T07:16:09.182Z,1025.55
2017-03-15T07:17:09.215Z,1025.52
2017-03-15T07:18:09.244Z,1025.61
2017-03-15T07:19:09.277Z,1025.65
2017-03-15T07:20:09.305Z,1025.7
2017-03-15T07:21:09.340Z,1025.73
2017-03-15T07:22:09.373Z,1025.69
2017-03-15T07:23:09.407Z,1025.84
2017-03-15T07:24:09.436Z,1025.54
2017-03-15T07:25:09.464Z,1025.64
2017-03-15T07:26:09.500Z,1025.7
2017-03-15T07:27:09.529Z,1025.65
2017-03-15T07:28:09.559Z,1025.58
2017-03-15T07:29:09.591Z,1025.63
2017-03-15T07:30:09.627Z,1025.59
2017-03-15T07:31:09.657Z,1025.37
2017-03-15T07:32:09.690Z,1025.64
2017-03-15T07:33:09.721Z,1025.57
2017-03-15T07:34:09.754Z,1025.51
2017-03-15T07:35:09.787Z,1025.58
2017-03-15T07:36:09.818Z,1025.63
2017-03-15T07:37:09.855Z,1025.77
2017-03-15T07:38:09.885Z,1025.75
2017-03-15T07:39:09.913Z,1025.31
2017-03-15T07:40:09.953Z,1025.73
2017-03-15T07:41:09.984Z,1025.86
2017-03-15T07:42:10.019Z,1025.85
2017-03-15T07:43:10.053Z,1025.39
2017-03-15T07:44:10.072Z,1025.38
2017-03-15T07:45:10.117Z,1025.6
2017-03-15T07:46:10.150Z,1025.41
2017-03-15T07:47:10.186Z,1025.75
2017-03-15T07:48:10.219Z,1026
2017-03-15T07:49:10.257Z,1026
2017-03-15T07:50:10.441Z,1026.03
2017-03-15T07:51:10.324Z,1025.48
2017-03-15T07:52:10.360Z,1025.56
2017-03-15T07:53:10.389Z,1025.5
2017-03-15T07:54:10.411Z,1025.51
2017-03-15T07:55:10.460Z,1025.54
2017-03-15T07:56:10.496Z,1025.51
2017-03-15T07:57:10.521Z,1025.55
2017-03-15T07:58:10.564Z,1025.58
2017-03-15T07:59:10.599Z,1025.8
2017-03-15T08:00:10.623Z,1025.58
2017-03-15T08:01:10.662Z,1025.47
2017-03-15T08:02:10.700Z,1025.5
2017-03-15T08:03:10.732Z,1025.45
2017-03-15T08:04:10.764Z,1025.44
2017-03-15T08:05:10.799Z,1026.13
2017-03-15T08:06:10.832Z,1025.32
2017-03-15T08:07:10.870Z,1025.31
2017-03-15T08:08:10.899Z,1025.39
2017-03-15T08:09:10.934Z,1025.45
2017-03-15T08:10:10.967Z,1025.53
2017-03-15T08:11:11.001Z,1025.48
2017-03-15T08:12:11.034Z,1025.48
2017-03-15T08:13:11.074Z,1025.54
2017-03-15T08:14:11.104Z,1025.54
2017-03-15T08:15:11.136Z,1025.54
2017-03-15T08:16:11.171Z,1025.57
2017-03-15T08:17:11.205Z,1025.67
2017-03-15T08:18:11.235Z,1025.65
2017-03-15T08:19:11.265Z,1025.68
2017-03-15T08:20:11.304Z,1025.67
2017-03-15T08:21:11.335Z,1025.58
2017-03-15T08:22:11.369Z,1025.54
2017-03-15T08:23:11.402Z,1025.49
2017-03-15T08:24:11.434Z,1026.04
2017-03-15T08:25:11.466Z,1026.15
2017-03-15T08:26:11.499Z,1025.18
2017-03-15T08:27:11.533Z,1025.19
2017-03-15T08:28:11.570Z,1025.23
2017-03-15T08:29:11.603Z,1025.16
2017-03-15T08:30:11.734Z,1025.17
2017-03-15T08:31:11.666Z,1025.27
2017-03-15T08:32:11.704Z,1025.3
2017-03-15T08:33:11.737Z,1025.32
2017-03-15T08:34:11.766Z,1025.18
2017-03-15T08:35:11.801Z,1025.6
2017-03-15T08:36:11.833Z,1025.85
2017-03-15T08:37:11.868Z,1026.09
2017-03-15T08:38:11.900Z,1026.09
2017-03-15T08:39:11.931Z,1026.22
2017-03-15T08:40:11.968Z,1026.18
2017-03-15T08:41:12.001Z,1026.25
2017-03-15T08:42:12.036Z,1026.26
2017-03-15T08:43:12.069Z,1026.26
2017-03-15T08:44:12.109Z,1026.2
2017-03-15T08:45:12.143Z,1026.3
2017-03-15T08:46:12.175Z,1026.23
2017-03-15T08:47:12.214Z,1026.27
2017-03-15T08:48:12.250Z,1026.23
2017-03-15T08:49:12.286Z,1026.25
2017-03-15T08:50:12.315Z,1025.88
2017-03-15T08:51:12.365Z,1025.26
2017-03-15T08:52:12.399Z,1025.25
2017-03-15T08:53:12.440Z,1025.44
2017-03-15T08:54:12.478Z,1025.27
2017-03-15T08:55:12.515Z,1025.22
2017-03-15T08:56:12.553Z,1025.13
2017-03-15T08:57:12.596Z,1025.15
2017-03-15T08:58:12.631Z,1025.23
2017-03-15T08:59:12.665Z,1025.27
2017-03-15T09:00:12.698Z,1025.11
2017-03-15T09:01:12.737Z,1025.18
2017-03-15T09:02:12.757Z,1026.28
2017-03-15T09:03:12.816Z,1026.11
2017-03-15T09:04:12.832Z,1025.18
2017-03-15T09:05:12.881Z,1026.16
2017-03-15T09:06:12.920Z,1026.12
2017-03-15T09:07:12.956Z,1026.21
2017-03-15T09:08:12.994Z,1026
2017-03-15T09:09:13.034Z,1026.04
2017-03-15T09:10:13.068Z,1026.12
2017-03-15T09:11:13.107Z,1025.97
2017-03-15T09:12:13.141Z,1025.17
2017-03-15T09:13:13.182Z,1025.2
2017-03-15T09:14:13.225Z,1025.25
2017-03-15T09:15:13.260Z,1025.26
2017-03-15T09:16:13.434Z,1026.15
2017-03-15T09:17:13.357Z,1026.22
2017-03-15T09:18:13.373Z,1026.24
2017-03-15T09:19:13.412Z,1025.3
2017-03-15T09:20:13.452Z,1025.32
2017-03-15T09:21:13.508Z,1025.87
2017-03-15T09:22:13.531Z,1025.22
2017-03-15T09:23:13.569Z,1025.99
2017-03-15T09:24:13.608Z,1025.33
2017-03-15T09:25:13.646Z,1025.09
2017-03-15T09:26:13.676Z,1025.77
2017-03-15T09:27:13.727Z,1025.72
2017-03-15T09:28:13.764Z,1025.71
2017-03-15T09:29:13.803Z,1025.73
2017-03-15T09:30:13.841Z,1025.64
2017-03-15T09:31:13.880Z,1025.58
2017-03-15T09:32:13.926Z,1025.53
2017-03-15T09:33:13.962Z,1025.54
2017-03-15T09:34:14.001Z,1025.51
2017-03-15T09:35:14.040Z,1025.15
2017-03-15T09:36:14.081Z,1025.54
2017-03-15T09:37:14.127Z,1025.5
2017-03-15T09:38:14.168Z,1025.16
2017-03-15T09:39:14.208Z,1025.37
2017-03-15T09:40:14.236Z,1024.99
2017-03-15T09:41:14.285Z,1025.36
2017-03-15T09:42:14.331Z,1025.09
2017-03-15T09:43:14.369Z,1025.39
2017-03-15T09:44:14.412Z,1025.36
2017-03-15T09:45:14.751Z,1025.08
2017-03-15T09:46:14.496Z,1025.3
2017-03-15T09:47:14.539Z,1025.42
2017-03-15T09:48:14.579Z,1025.07
2017-03-15T09:49:14.620Z,1025.01
2017-03-15T09:50:14.657Z,1025.1
2017-03-15T09:51:14.698Z,1025.63
2017-03-15T09:52:14.742Z,1025.03
2017-03-15T09:53:14.781Z,1025.6
2017-03-15T09:54:14.824Z,1025.67
2017-03-15T09:55:15.014Z,1025.67
2017-03-15T09:56:14.904Z,1025.68
2017-03-15T09:57:14.944Z,1025.78
2017-03-15T09:58:14.984Z,1025.67
2017-03-15T09:59:15.027Z,1025.31
2017-03-15T10:00:15.067Z,1025.37
2017-03-15T10:01:15.106Z,1025.74
2017-03-15T10:02:15.149Z,1025.72
2017-03-15T10:03:15.188Z,1025.23
2017-03-15T10:04:15.228Z,1025.38
2017-03-15T10:05:15.268Z,1025.89
2017-03-15T10:06:15.305Z,1025.26
2017-03-15T10:07:15.347Z,1025.36
2017-03-15T10:08:15.388Z,1025.54
2017-03-15T10:09:15.425Z,1025.42
2017-03-15T10:10:15.466Z,1026.18
2017-03-15T10:11:15.510Z,1025.57
2017-03-15T10:12:15.544Z,1025.31
2017-03-15T10:13:15.585Z,1025.32
2017-03-15T10:14:15.622Z,1025.57
2017-03-15T10:15:15.649Z,1025.62
2017-03-15T10:16:15.701Z,1026.36
2017-03-15T10:17:15.742Z,1025.29
2017-03-15T10:18:15.781Z,1025.38
2017-03-15T10:19:15.813Z,1026.6
2017-03-15T10:20:16.001Z,1026.56
2017-03-15T10:21:15.894Z,1026.47
2017-03-15T10:22:15.926Z,1026.43
2017-03-15T10:23:15.969Z,1026.28
2017-03-15T10:24:16.001Z,1026.26
2017-03-15T10:25:16.039Z,1026.36
2017-03-15T10:26:16.076Z,1026.5
2017-03-15T10:27:16.113Z,1026.35
2017-03-15T10:28:16.152Z,1026.38
2017-03-15T10:29:16.195Z,1026.45
2017-03-15T10:30:16.226Z,1025.28
2017-03-15T10:31:16.263Z,1026.63
2017-03-15T10:32:16.304Z,1025.39
2017-03-15T10:33:16.354Z,1026.4
2017-03-15T10:34:16.378Z,1026.31
2017-03-15T10:35:16.438Z,1026.41
2017-03-15T10:36:16.456Z,1026.51
2017-03-15T10:37:16.484Z,1026.52
2017-03-15T10:38:16.524Z,1026.53
2017-03-15T10:39:16.564Z,1026.63
2017-03-15T10:40:16.600Z,1025.45
2017-03-15T10:41:16.631Z,1025.44
2017-03-15T10:42:16.658Z,1026.8
2017-03-15T10:43:16.710Z,1026.96
2017-03-15T10:44:16.746Z,1026.85
2017-03-15T10:45:16.779Z,1026.97
2017-03-15T10:46:16.821Z,1027.07
2017-03-15T10:47:16.853Z,1027.03
2017-03-15T10:48:16.889Z,1025.85
2017-03-15T10:49:16.929Z,1025.57
2017-03-15T10:50:16.965Z,1026.03
2017-03-15T10:51:16.999Z,1025.53
2017-03-15T10:52:17.035Z,1025.53
2017-03-15T10:53:17.055Z,1025.49
2017-03-15T10:54:17.106Z,1025.54
2017-03-15T10:55:17.147Z,1025.55
2017-03-15T10:56:17.178Z,1026.4
2017-03-15T10:57:17.218Z,1027.22
2017-03-15T10:58:17.252Z,1027.23
2017-03-15T10:59:17.286Z,1027.19
2017-03-15T11:00:17.421Z,1026.72
2017-03-15T11:01:17.362Z,1026.08
2017-03-15T11:02:17.397Z,1025.81
2017-03-15T11:03:17.429Z,1025.71
2017-03-15T11:04:17.457Z,1025.76
2017-03-15T11:05:17.501Z,1025.67
2017-03-15T11:06:17.539Z,1025.74
2017-03-15T11:07:17.570Z,1025.72
2017-03-15T11:08:17.604Z,1025.76
2017-03-15T11:09:17.646Z,1025.66
2017-03-15T11:10:17.677Z,1025.64
2017-03-15T11:11:17.696Z,1025.65
2017-03-15T11:12:17.747Z,1025.66
2017-03-15T11:13:17.786Z,1025.59
2017-03-15T11:14:17.817Z,1025.47
2017-03-15T11:15:17.856Z,1025.59
2017-03-15T11:16:17.885Z,1025.66
2017-03-15T11:17:17.923Z,1025.5
2017-03-15T11:18:17.958Z,1025.58
2017-03-15T11:19:17.992Z,1025.44
2017-03-15T11:20:18.028Z,1025.42
2017-03-15T11:21:18.058Z,1025.48
2017-03-15T11:22:18.097Z,1025.46
2017-03-15T11:23:18.134Z,1025.48
2017-03-15T11:24:18.154Z,1025.45
2017-03-15T11:25:18.200Z,1025.48
2017-03-15T11:26:18.238Z,1025.46
2017-03-15T11:27:18.275Z,1025.46
2017-03-15T11:28:18.293Z,1025.45
2017-03-15T11:29:18.344Z,1025.39
2017-03-15T11:30:18.378Z,1025.44
2017-03-15T11:31:18.413Z,1025.36
2017-03-15T11:32:18.450Z,1025.35
2017-03-15T11:33:18.484Z,1025.35
2017-03-15T11:34:18.519Z,1025.28
2017-03-15T11:35:18.553Z,1025.31
2017-03-15T11:36:18.586Z,1025.18
2017-03-15T11:37:18.627Z,1025.19
2017-03-15T11:38:18.660Z,1025.11
2017-03-15T11:39:18.690Z,1025.13
2017-03-15T11:40:18.717Z,1025.1
2017-03-15T11:41:18.760Z,1025.08
2017-03-15T11:42:18.803Z,1025.12
2017-03-15T11:43:18.831Z,1025.08
2017-03-15T11:44:18.862Z,1025.12
2017-03-15T11:45:18.896Z,1025.01
2017-03-15T11:46:18.933Z,1025.06
2017-03-15T11:47:18.965Z,1025.07
2017-03-15T11:48:19.004Z,1025.08
2017-03-15T11:49:19.042Z,1025.05
2017-03-15T11:50:19.178Z,1025.02
2017-03-15T11:51:19.106Z,1024.99
2017-03-15T11:52:19.144Z,1025
2017-03-15T11:53:19.179Z,1025.02
2017-03-15T11:54:19.213Z,1025.06
2017-03-15T11:55:19.246Z,1025.03
2017-03-15T11:56:19.281Z,1025.06
2017-03-15T11:57:19.314Z,1025.09
2017-03-15T11:58:19.350Z,1025.04
2017-03-15T11:59:19.384Z,1024.95
2017-03-15T12:00:19.416Z,1025.07
2017-03-15T12:01:19.454Z,1025.13
2017-03-15T12:02:19.484Z,1025.05
2017-03-15T12:03:19.519Z,1025.1
2017-03-15T12:04:19.555Z,1025.16
2017-03-15T12:05:19.591Z,1025.18
2017-03-15T12:06:19.626Z,1025.1
2017-03-15T12:07:19.657Z,1025.08
2017-03-15T12:08:19.691Z,1025.09
2017-03-15T12:09:19.726Z,1025.06
2017-03-15T12:10:19.758Z,1025.14
2017-03-15T12:11:19.791Z,1025.15
2017-03-15T12:12:19.821Z,1025.18
2017-03-15T12:13:19.858Z,1025.13
2017-03-15T12:14:19.891Z,1025.07
2017-03-15T12:15:19.927Z,1025.08
2017-03-15T12:16:19.958Z,1025.12
2017-03-15T12:17:19.991Z,1025.11
2017-03-15T12:18:20.024Z,1025.13
2017-03-15T12:19:20.057Z,1025.06
2017-03-15T12:20:20.094Z,1025.12
2017-03-15T12:21:20.124Z,1025.06
2017-03-15T12:22:20.159Z,1025.13
2017-03-15T12:23:20.193Z,1025.17
2017-03-15T12:24:20.229Z,1025.12
2017-03-15T12:25:20.257Z,1025.14
2017-03-15T12:26:20.290Z,1025.12
2017-03-15T12:27:20.326Z,1025.15
2017-03-15T12:28:20.358Z,1025.16
2017-03-15T12:29:20.392Z,1025.07
2017-03-15T12:30:20.424Z,1025.11
2017-03-15T12:31:20.458Z,1025.08
2017-03-15T12:32:20.490Z,1025.1
2017-03-15T12:33:20.524Z,1025.09
2017-03-15T12:34:20.556Z,1025.07
2017-03-15T12:35:20.589Z,1025.07
2017-03-15T12:36:20.625Z,1025.06
2017-03-15T12:37:20.657Z,1025.01
2017-03-15T12:38:20.688Z,1024.93
2017-03-15T12:39:20.723Z,1025.02
2017-03-15T12:40:20.758Z,1024.97
2017-03-15T12:41:20.791Z,1025.03
2017-03-15T12:42:20.828Z,1024.98
2017-03-15T12:43:20.854Z,1024.98
2017-03-15T12:44:20.873Z,1025
2017-03-15T12:45:20.918Z,1024.94
2017-03-15T12:46:21.306Z,1025.05
2017-03-15T12:47:20.989Z,1025
2017-03-15T12:48:21.017Z,1025.07
2017-03-15T12:49:21.059Z,1025.11
2017-03-15T12:50:21.085Z,1025.06
2017-03-15T12:51:21.121Z,1025.06
2017-03-15T12:52:21.152Z,1025.13
2017-03-15T12:53:21.182Z,1025.06
2017-03-15T12:54:21.213Z,1025.03
2017-03-15T12:55:21.253Z,1025.1
2017-03-15T12:56:21.283Z,1025.07
2017-03-15T12:57:21.314Z,1025.19
2017-03-15T12:58:21.349Z,1025.06
2017-03-15T12:59:21.383Z,1025.04
2017-03-15T13:00:21.411Z,1024.95
2017-03-15T13:01:21.445Z,1024.96
2017-03-15T13:02:21.478Z,1024.95
2017-03-15T13:03:21.509Z,1024.97
2017-03-15T13:04:21.541Z,1024.95
2017-03-15T13:05:21.615Z,1024.92
2017-03-15T13:06:21.593Z,1024.85
2017-03-15T13:07:21.628Z,1024.86
2017-03-15T13:08:21.672Z,1024.88
2017-03-15T13:09:21.705Z,1024.93
2017-03-15T13:10:21.943Z,1025.04
2017-03-15T13:11:21.976Z,1024.99
2017-03-15T13:12:21.802Z,1025
2017-03-15T13:13:22.201Z,1024.94
2017-03-15T13:14:21.868Z,1024.95
2017-03-15T13:15:21.903Z,1024.9
2017-03-15T13:16:21.933Z,1024.94
2017-03-15T13:17:21.969Z,1025.02
2017-03-15T13:18:21.999Z,1025.05
2017-03-15T13:19:22.036Z,1024.97
2017-03-15T13:20:22.064Z,1025.02
2017-03-15T13:21:22.096Z,1025.06
2017-03-15T13:22:22.132Z,1025
2017-03-15T13:23:22.165Z,1025.03
2017-03-15T13:24:22.194Z,1025.08
2017-03-15T13:25:22.328Z,1025.01
2017-03-15T13:26:22.263Z,1025.08
2017-03-15T13:27:22.299Z,1025.12
2017-03-15T13:28:22.329Z,1025.05
2017-03-15T13:29:22.362Z,1025.02
2017-03-15T13:30:22.394Z,1025.09
2017-03-15T13:31:22.429Z,1025.04
2017-03-15T13:32:22.460Z,1025.11
2017-03-15T13:33:22.489Z,1025.09
2017-03-15T13:34:22.524Z,1025.07
2017-03-15T13:35:22.559Z,1025.1
2017-03-15T13:36:22.590Z,1025.06
2017-03-15T13:37:22.625Z,1025.09
2017-03-15T13:38:22.657Z,1025.09
2017-03-15T13:39:22.688Z,1025.08
2017-03-15T13:40:22.717Z,1025.07
2017-03-15T13:41:22.756Z,1025.18
2017-03-15T13:42:22.783Z,1025.03
2017-03-15T13:44:32.015Z,1024.99
2017-03-15T13:45:31.435Z,1024.94
2017-03-15T13:46:31.468Z,1024.91
2017-03-15T13:47:31.495Z,1024.92
2017-03-15T13:48:31.529Z,1024.98
2017-03-15T13:49:31.564Z,1024.94
2017-03-15T13:50:31.592Z,1024.92
2017-03-15T13:51:31.632Z,1024.96
2017-03-15T13:52:31.666Z,1024.96
2017-03-15T13:53:31.692Z,1024.93
2017-03-15T13:54:31.728Z,1025.06
2017-03-15T13:55:31.757Z,1025.06
2017-03-15T13:56:31.789Z,1025.04
2017-03-15T13:57:31.822Z,1025.04
2017-03-15T13:58:31.865Z,1025.04
2017-03-15T13:59:31.882Z,1025.02
2017-03-15T14:00:31.920Z,1025.09
2017-03-15T14:01:31.953Z,1025.06
2017-03-15T14:02:31.989Z,1025.07
2017-03-15T14:03:32.013Z,1025.04
2017-03-15T14:04:32.045Z,1024.98
2017-03-15T14:05:32.079Z,1025.01
2017-03-15T14:06:32.112Z,1025.06
2017-03-15T14:07:32.141Z,1025.07
2017-03-15T14:08:32.174Z,1025.01
2017-03-15T14:09:32.265Z,1025.09
2017-03-15T14:10:32.243Z,1025.06
2017-03-15T14:11:32.268Z,1025.02
2017-03-15T14:12:32.299Z,1024.98
2017-03-15T14:13:32.341Z,1024.96
2017-03-15T14:14:32.362Z,1025
2017-03-15T14:15:32.397Z,1025
2017-03-15T14:16:32.432Z,1025.06
2017-03-15T14:17:32.460Z,1025.04
2017-03-15T14:18:32.496Z,1024.99
2017-03-15T14:19:32.742Z,1024.95
2017-03-15T14:20:32.559Z,1024.87
2017-03-15T14:21:32.595Z,1024.87
2017-03-15T14:22:32.619Z,1024.84
2017-03-15T14:23:32.655Z,1024.9
2017-03-15T14:24:32.685Z,1024.92
2017-03-15T14:25:32.721Z,1024.91
2017-03-15T14:26:32.749Z,1024.89
2017-03-15T14:27:32.866Z,1024.83
2017-03-15T14:28:32.823Z,1024.85
2017-03-15T14:29:32.891Z,1024.8
2017-03-15T14:30:32.893Z,1024.78
2017-03-15T14:31:32.922Z,1024.72
2017-03-15T14:32:32.939Z,1024.74
2017-03-15T14:33:32.971Z,1024.71
2017-03-15T14:34:33.004Z,1024.67
2017-03-15T14:35:33.049Z,1024.69
2017-03-15T14:36:33.068Z,1024.72
2017-03-15T14:37:33.101Z,1024.68
2017-03-15T14:38:33.133Z,1024.68
2017-03-15T14:39:33.168Z,1024.7
2017-03-15T14:40:33.210Z,1024.74
2017-03-15T14:41:33.227Z,1024.67
2017-03-15T14:42:33.279Z,1024.67
2017-03-15T14:43:33.294Z,1024.69
2017-03-15T14:44:33.328Z,1024.65
2017-03-15T14:45:33.372Z,1024.64
2017-03-15T14:46:33.387Z,1024.68
2017-03-15T14:47:33.425Z,1024.63
2017-03-15T14:48:33.497Z,1024.7
2017-03-15T14:49:33.483Z,1024.69
2017-03-15T14:50:33.525Z,1024.64
2017-03-15T14:51:33.547Z,1024.67
2017-03-15T14:52:33.577Z,1024.73
2017-03-15T14:53:33.611Z,1024.73
2017-03-15T14:54:33.639Z,1024.75
2017-03-15T14:55:33.673Z,1024.7
2017-03-15T14:56:33.706Z,1024.65
2017-03-15T14:57:33.737Z,1024.68
2017-03-15T14:58:33.840Z,1024.73
2017-03-15T14:59:33.806Z,1024.68
2017-03-15T15:00:33.837Z,1024.69
2017-03-15T15:01:33.863Z,1024.77
2017-03-15T15:02:33.898Z,1024.75
2017-03-15T15:03:33.970Z,1024.76
2017-03-15T15:04:33.966Z,1024.74
2017-03-15T15:05:33.991Z,1024.8
2017-03-15T15:06:34.053Z,1024.76
2017-03-15T15:07:34.066Z,1024.73
2017-03-15T15:08:34.087Z,1024.72
2017-03-15T15:09:34.117Z,1024.73
2017-03-15T15:10:34.147Z,1024.74
2017-03-15T15:11:34.180Z,1024.7
2017-03-15T15:12:34.211Z,1024.71
2017-03-15T15:13:34.248Z,1024.69
2017-03-15T15:14:34.274Z,1024.73
2017-03-15T15:15:34.309Z,1024.6
2017-03-15T15:16:34.337Z,1024.68
2017-03-15T15:17:34.367Z,1024.64
2017-03-15T15:18:34.415Z,1024.56
2017-03-15T15:19:34.438Z,1024.6
2017-03-15T15:20:34.466Z,1024.58
2017-03-15T15:21:34.503Z,1024.64
2017-03-15T15:22:34.530Z,1024.63
2017-03-15T15:23:34.568Z,1024.62
2017-03-15T15:24:34.599Z,1024.61
2017-03-15T15:25:34.647Z,1024.62
2017-03-15T15:26:34.683Z,1024.63
2017-03-15T15:27:34.701Z,1024.74
2017-03-15T15:28:34.719Z,1024.72
2017-03-15T15:29:34.747Z,1024.68
2017-03-15T15:30:34.778Z,1024.7
2017-03-15T15:31:34.810Z,1024.73
2017-03-15T15:32:34.866Z,1024.7
2017-03-15T15:33:34.876Z,1024.75
2017-03-15T15:34:34.913Z,1024.74
2017-03-15T15:35:34.934Z,1024.75
2017-03-15T15:36:34.970Z,1024.7
2017-03-15T15:37:35.000Z,1024.7
2017-03-15T15:38:35.031Z,1024.68
2017-03-15T15:39:35.068Z,1024.67
2017-03-15T15:40:35.107Z,1024.63
2017-03-15T15:41:35.123Z,1024.77
2017-03-15T15:42:35.161Z,1024.74
2017-03-15T15:43:35.189Z,1024.7
2017-03-15T15:44:35.219Z,1024.74
2017-03-15T15:45:35.265Z,1024.68
2017-03-15T15:46:35.289Z,1024.74
2017-03-15T15:47:35.321Z,1024.6
2017-03-15T15:48:35.354Z,1024.65
2017-03-15T15:49:35.386Z,1024.73
2017-03-15T15:50:35.420Z,1024.66
2017-03-15T15:51:35.447Z,1024.7
2017-03-15T15:52:35.480Z,1024.64
2017-03-15T15:53:35.525Z,1024.71
2017-03-15T15:54:35.545Z,1024.74
2017-03-15T15:55:35.587Z,1024.65
2017-03-15T15:56:35.639Z,1024.64
2017-03-15T15:57:35.641Z,1024.63
2017-03-15T15:58:35.667Z,1024.6
2017-03-15T15:59:35.699Z,1024.61
2017-03-15T16:00:35.730Z,1024.59
2017-03-15T16:01:35.761Z,1024.62
2017-03-15T16:02:35.794Z,1024.64
2017-03-15T16:03:35.844Z,1024.59
2017-03-15T16:04:35.854Z,1024.62
2017-03-15T16:05:35.887Z,1024.61
2017-03-15T16:06:35.914Z,1024.66
2017-03-15T16:07:35.948Z,1024.63
2017-03-15T16:08:35.977Z,1024.66
2017-03-15T16:09:36.021Z,1024.72
2017-03-15T16:10:36.052Z,1024.73
2017-03-15T16:11:36.076Z,1024.71
2017-03-15T16:12:36.102Z,1024.74
2017-03-15T16:13:36.133Z,1024.67
2017-03-15T16:14:36.169Z,1024.73
2017-03-15T16:15:36.205Z,1024.69
2017-03-15T16:16:36.227Z,1024.7
2017-03-15T16:17:36.262Z,1024.68
2017-03-15T16:18:36.287Z,1024.73
2017-03-15T16:19:36.333Z,1024.69
2017-03-15T16:20:36.361Z,1024.71
2017-03-15T16:21:36.382Z,1024.71
2017-03-15T16:22:36.430Z,1024.74
2017-03-15T16:23:36.464Z,1024.74
2017-03-15T16:24:36.479Z,1024.75
2017-03-15T16:25:36.517Z,1024.73
2017-03-15T16:26:36.536Z,1024.76
2017-03-15T16:27:36.568Z,1024.75
2017-03-15T16:28:36.599Z,1024.81
2017-03-15T16:29:36.633Z,1024.81
2017-03-15T16:30:36.663Z,1024.82
2017-03-15T16:31:36.697Z,1024.71
2017-03-15T16:32:36.722Z,1024.69
2017-03-15T16:33:36.752Z,1024.66
2017-03-15T16:34:36.786Z,1024.69
2017-03-15T16:35:36.822Z,1024.67
2017-03-15T16:36:36.847Z,1024.68
2017-03-15T16:37:36.898Z,1024.69
2017-03-15T16:38:36.941Z,1024.66
2017-03-15T16:39:36.937Z,1024.71
2017-03-15T16:40:36.984Z,1024.66
2017-03-15T16:41:37.014Z,1024.71
2017-03-15T16:42:37.050Z,1024.71
2017-03-15T16:43:37.067Z,1024.69
